Time,TemperatureF,DewpointF,PressureIn,WindDirection,WindDirectionDegrees,WindSpeedMPH,WindSpeedGustMPH,Humidity,HourlyPrecipIn,Conditions,Clouds,dailyrainin,SoftwareType,DateUTC
2013-02-15 00:08:00,-999.0,-99.9,29.78,North,-999,-999.0,-999.0,-999,-99.99,,,0.00,weatherlink.com 1.10,2013-02-15 05:08:00,
2013-02-15 00:23:00,-999.0,-99.9,29.79,North,-999,-999.0,-999.0,-999,-99.99,,,0.00,weatherlink.com 1.10,2013-02-15 05:23:00,
2013-02-15 00:38:00,-999.0,-99.9,29.80,North,-999,-999.0,-999.0,-999,-99.99,,,0.00,weatherlink.com 1.10,2013-02-15 05:38:00,
2013-02-15 00:53:00,-999.0,-99.9,29.80,North,-999,-999.0,-999.0,-999,-99.99,,,0.00,weatherlink.com 1.10,2013-02-15 05:53:00,
2013-02-15 01:09:00,-999.0,-99.9,29.80,North,-999,-999.0,-999.0,-999,-99.99,,,0.00,weatherlink.com 1.10,2013-02-15 06:09:00,
2013-02-15 01:24:00,-999.0,-99.9,29.81,North,-999,-999.0,-999.0,-999,-99.99,,,0.00,weatherlink.com 1.10,2013-02-15 06:24:00,
2013-02-15 01:39:00,-999.0,-99.9,29.81,North,-999,-999.0,-999.0,-999,-99.99,,,0.00,weatherlink.com 1.10,2013-02-15 06:39:00,
2013-02-15 01:54:00,-999.0,-99.9,29.82,North,-999,-999.0,-999.0,-999,-99.99,,,0.00,weatherlink.com 1.10,2013-02-15 06:54:00,
2013-02-15 02:09:00,-999.0,-99.9,29.83,North,-999,-999.0,-999.0,-999,-99.99,,,0.00,weatherlink.com 1.10,2013-02-15 07:09:00,
2013-02-15 02:24:00,-999.0,-99.9,29.84,North,-999,-999.0,-999.0,-999,-99.99,,,0.00,weatherlink.com 1.10,2013-02-15 07:24:00,
2013-02-15 02:39:00,-999.0,-99.9,29.84,North,-999,-999.0,-999.0,-999,-99.99,,,0.00,weatherlink.com 1.10,2013-02-15 07:39:00,
2013-02-15 02:54:00,-999.0,-99.9,29.84,North,-999,-999.0,-999.0,-999,-99.99,,,0.00,weatherlink.com 1.10,2013-02-15 07:54:00,
2013-02-15 03:09:00,-999.0,-99.9,29.85,North,-999,-999.0,-999.0,-999,-99.99,,,0.00,weatherlink.com 1.10,2013-02-15 08:09:00,
2013-02-15 03:24:00,-999.0,-99.9,29.85,North,-999,-999.0,-999.0,-999,-99.99,,,0.00,weatherlink.com 1.10,2013-02-15 08:24:00,
2013-02-15 03:39:00,-999.0,-99.9,29.86,North,-999,-999.0,-999.0,-999,-99.99,,,0.00,weatherlink.com 1.10,2013-02-15 08:39:00,
2013-02-15 03:54:00,-999.0,-99.9,29.87,North,-999,-999.0,-999.0,-999,-99.99,,,0.00,weatherlink.com 1.10,2013-02-15 08:54:00,
2013-02-15 04:09:00,-999.0,-99.9,29.87,North,-999,-999.0,-999.0,-999,-99.99,,,0.00,weatherlink.com 1.10,2013-02-15 09:09:00,
2013-02-15 04:24:00,-999.0,-99.9,29.87,North,-999,-999.0,-999.0,-999,-99.99,,,0.00,weatherlink.com 1.10,2013-02-15 09:24:00,
2013-02-15 04:40:00,-999.0,-99.9,29.87,North,-999,-999.0,-999.0,-999,-99.99,,,0.00,weatherlink.com 1.10,2013-02-15 09:40:00,
2013-02-15 04:55:00,-999.0,-99.9,29.88,North,-999,-999.0,-999.0,-999,-99.99,,,0.00,weatherlink.com 1.10,2013-02-15 09:55:00,
2013-02-15 05:10:00,-999.0,-99.9,29.89,North,-999,-999.0,-999.0,-999,-99.99,,,0.00,weatherlink.com 1.10,2013-02-15 10:10:00,
2013-02-15 05:25:00,-999.0,-99.9,29.90,North,-999,-999.0,-999.0,-999,-99.99,,,0.00,weatherlink.com 1.10,2013-02-15 10:25:00,
2013-02-15 05:40:00,-999.0,-99.9,29.91,North,-999,-999.0,-999.0,-999,-99.99,,,0.00,weatherlink.com 1.10,2013-02-15 10:40:00,
2013-02-15 05:55:00,-999.0,-99.9,29.91,North,-999,-999.0,-999.0,-999,-99.99,,,0.00,weatherlink.com 1.10,2013-02-15 10:55:00,
2013-02-15 06:10:00,-999.0,-99.9,29.92,North,-999,-999.0,-999.0,-999,-99.99,,,0.00,weatherlink.com 1.10,2013-02-15 11:10:00,
2013-02-15 06:25:00,-999.0,-99.9,29.93,North,-999,-999.0,-999.0,-999,-99.99,,,0.00,weatherlink.com 1.10,2013-02-15 11:25:00,
2013-02-15 06:40:00,-999.0,-99.9,29.94,North,-999,-999.0,-999.0,-999,-99.99,,,0.00,weatherlink.com 1.10,2013-02-15 11:40:00,
2013-02-15 06:55:00,-999.0,-99.9,29.94,North,-999,-999.0,-999.0,-999,-99.99,,,0.00,weatherlink.com 1.10,2013-02-15 11:55:00,
2013-02-15 07:10:00,-999.0,-99.9,29.95,North,-999,-999.0,-999.0,-999,-99.99,,,0.00,weatherlink.com 1.10,2013-02-15 12:10:00,
2013-02-15 07:25:00,-999.0,-99.9,29.96,North,-999,-999.0,-999.0,-999,-99.99,,,0.00,weatherlink.com 1.10,2013-02-15 12:25:00,
2013-02-15 07:40:00,-999.0,-99.9,29.96,North,-999,-999.0,-999.0,-999,-99.99,,,0.00,weatherlink.com 1.10,2013-02-15 12:40:00,
2013-02-15 07:55:00,-999.0,-99.9,29.96,North,-999,-999.0,-999.0,-999,-99.99,,,0.00,weatherlink.com 1.10,2013-02-15 12:55:00,
2013-02-15 08:11:00,-999.0,-99.9,29.97,North,-999,-999.0,-999.0,-999,-99.99,,,0.00,weatherlink.com 1.10,2013-02-15 13:11:00,
2013-02-15 08:26:00,-999.0,-99.9,29.98,North,-999,-999.0,-999.0,-999,-99.99,,,0.00,weatherlink.com 1.10,2013-02-15 13:26:00,
2013-02-15 08:41:00,16.2,12.0,29.98,WNW,303,0.0,-999.0,84,-99.99,,,0.00,weatherlink.com 1.10,2013-02-15 13:41:00,
2013-02-15 08:56:00,17.3,13.0,29.99,WNW,303,0.0,-999.0,83,-99.99,,,0.00,weatherlink.com 1.10,2013-02-15 13:56:00,
2013-02-15 09:11:00,18.4,14.0,30.00,WNW,303,2.0,-999.0,81,-99.99,,,0.00,weatherlink.com 1.10,2013-02-15 14:11:00,
2013-02-15 09:26:00,18.1,13.0,30.00,NW,306,4.0,-999.0,81,-99.99,,,0.00,weatherlink.com 1.10,2013-02-15 14:26:00,
2013-02-15 09:41:00,18.2,13.0,30.00,NW,306,3.0,-999.0,81,-99.99,,,0.00,weatherlink.com 1.10,2013-02-15 14:41:00,
2013-02-15 09:56:00,17.7,13.0,30.00,WNW,298,1.0,-999.0,80,-99.99,,,0.00,weatherlink.com 1.10,2013-02-15 14:56:00,
2013-02-15 10:11:00,17.7,13.0,30.01,WNW,300,2.0,-999.0,80,-99.99,,,0.00,weatherlink.com 1.10,2013-02-15 15:11:00,
2013-02-15 10:26:00,17.7,13.0,30.01,WNW,287,7.0,-999.0,80,-99.99,,,0.00,weatherlink.com 1.10,2013-02-15 15:26:00,
2013-02-15 10:41:00,17.9,13.0,30.02,WNW,284,3.0,-999.0,81,-99.99,,,0.00,weatherlink.com 1.10,2013-02-15 15:41:00,
2013-02-15 10:56:00,18.2,13.0,30.02,WNW,294,2.0,-999.0,80,-99.99,,,0.00,weatherlink.com 1.10,2013-02-15 15:56:00,
2013-02-15 11:11:00,18.5,13.0,30.02,WNW,286,3.0,-999.0,80,-99.99,,,0.00,weatherlink.com 1.10,2013-02-15 16:11:00,
2013-02-15 11:26:00,18.5,14.0,30.02,WNW,287,6.0,-999.0,81,-99.99,,,0.00,weatherlink.com 1.10,2013-02-15 16:26:00,
2013-02-15 11:41:00,18.5,14.0,30.03,West,281,7.0,-999.0,82,-99.99,,,0.00,weatherlink.com 1.10,2013-02-15 16:41:00,
2013-02-15 11:56:00,19.1,14.0,30.02,WNW,283,5.0,-999.0,81,-99.99,,,0.00,weatherlink.com 1.10,2013-02-15 16:56:00,
2013-02-15 12:11:00,18.8,15.0,30.02,West,280,11.0,-999.0,84,-99.99,,,0.00,weatherlink.com 1.10,2013-02-15 17:11:00,
2013-02-15 12:26:00,18.6,15.0,30.03,West,279,9.0,-999.0,86,-99.99,,,0.00,weatherlink.com 1.10,2013-02-15 17:26:00,
2013-02-15 12:41:00,19.1,15.0,30.02,West,281,5.0,-999.0,85,-99.99,,,0.00,weatherlink.com 1.10,2013-02-15 17:41:00,
2013-02-15 12:56:00,19.2,15.0,30.02,West,281,9.0,-999.0,83,-99.99,,,0.00,weatherlink.com 1.10,2013-02-15 17:56:00,
2013-02-15 13:11:00,19.3,16.0,30.02,West,281,4.0,-999.0,86,-99.99,,,0.00,weatherlink.com 1.10,2013-02-15 18:11:00,
2013-02-15 13:26:00,19.7,16.0,30.02,West,281,5.0,-999.0,86,-99.99,,,0.00,weatherlink.com 1.10,2013-02-15 18:26:00,
2013-02-15 13:41:00,19.9,15.0,30.02,West,281,10.0,-999.0,81,-99.99,,,0.00,weatherlink.com 1.10,2013-02-15 18:41:00,
2013-02-15 13:56:00,20.0,15.0,30.02,West,281,6.0,-999.0,82,-99.99,,,0.00,weatherlink.com 1.10,2013-02-15 18:56:00,
2013-02-15 14:11:00,19.7,16.0,30.02,West,281,3.0,-999.0,86,-99.99,,,0.00,weatherlink.com 1.10,2013-02-15 19:11:00,
2013-02-15 14:26:00,20.0,17.0,30.03,WNW,284,0.0,-999.0,88,-99.99,,,0.00,weatherlink.com 1.10,2013-02-15 19:26:00,
2013-02-15 14:41:00,19.8,17.0,30.02,WNW,284,3.0,-999.0,87,-99.99,,,0.00,weatherlink.com 1.10,2013-02-15 19:41:00,
2013-02-15 14:56:00,19.9,16.0,30.02,WNW,284,5.0,-999.0,85,-99.99,,,0.00,weatherlink.com 1.10,2013-02-15 19:56:00,
2013-02-15 15:11:00,20.4,16.0,30.02,West,281,6.0,-999.0,84,-99.99,,,0.00,weatherlink.com 1.10,2013-02-15 20:11:00,
2013-02-15 15:26:00,20.6,15.0,30.02,West,280,9.0,-999.0,80,-99.99,,,0.00,weatherlink.com 1.10,2013-02-15 20:26:00,
2013-02-15 15:41:00,20.8,16.0,30.03,West,279,10.0,-999.0,80,-99.99,,,0.00,weatherlink.com 1.10,2013-02-15 20:41:00,
2013-02-15 15:57:00,20.6,16.0,30.03,West,281,13.0,-999.0,81,-99.99,,,0.00,weatherlink.com 1.10,2013-02-15 20:57:00,
2013-02-15 16:12:00,20.3,16.0,30.04,West,281,11.0,-999.0,83,-99.99,,,0.00,weatherlink.com 1.10,2013-02-15 21:12:00,
2013-02-15 16:27:00,19.9,16.0,30.04,West,281,9.0,-999.0,84,-99.99,,,0.00,weatherlink.com 1.10,2013-02-15 21:27:00,
2013-02-15 16:42:00,19.9,16.0,30.05,West,281,3.0,-999.0,85,-99.99,,,0.00,weatherlink.com 1.10,2013-02-15 21:42:00,
2013-02-15 16:57:00,19.7,17.0,30.05,WNW,283,0.0,-999.0,87,-99.99,,,0.00,weatherlink.com 1.10,2013-02-15 21:57:00,
2013-02-15 17:12:00,18.9,16.0,30.06,NNW,346,0.0,-999.0,89,-99.99,,,0.00,weatherlink.com 1.10,2013-02-15 22:12:00,
2013-02-15 17:27:00,18.8,16.0,30.06,NNW,346,0.0,-999.0,90,-99.99,,,0.00,weatherlink.com 1.10,2013-02-15 22:27:00,
2013-02-15 17:42:00,18.6,16.0,30.07,North,11,0.0,-999.0,90,-99.99,,,0.00,weatherlink.com 1.10,2013-02-15 22:42:00,
2013-02-15 17:57:00,-999.0,-99.9,30.07,North,-999,-999.0,-999.0,-999,-99.99,,,0.00,weatherlink.com 1.10,2013-02-15 22:57:00,
2013-02-15 18:12:00,-999.0,-99.9,30.08,North,-999,-999.0,-999.0,-999,-99.99,,,0.00,weatherlink.com 1.10,2013-02-15 23:12:00,
2013-02-15 18:27:00,-999.0,-99.9,30.08,North,-999,-999.0,-999.0,-999,-99.99,,,0.00,weatherlink.com 1.10,2013-02-15 23:27:00,
2013-02-15 18:42:00,-999.0,-99.9,30.09,North,-999,-999.0,-999.0,-999,-99.99,,,0.00,weatherlink.com 1.10,2013-02-15 23:42:00,
2013-02-15 18:57:00,-999.0,-99.9,30.09,North,-999,-999.0,-999.0,-999,-99.99,,,0.00,weatherlink.com 1.10,2013-02-15 23:57:00,
2013-02-15 19:12:00,-999.0,-99.9,30.10,North,-999,-999.0,-999.0,-999,-99.99,,,0.00,weatherlink.com 1.10,2013-02-16 00:12:00,
2013-02-15 19:27:00,-999.0,-99.9,30.11,North,-999,-999.0,-999.0,-999,-99.99,,,0.00,weatherlink.com 1.10,2013-02-16 00:27:00,
2013-02-15 19:42:00,-999.0,-99.9,30.11,North,-999,-999.0,-999.0,-999,-99.99,,,0.00,weatherlink.com 1.10,2013-02-16 00:42:00,
2013-02-15 19:57:00,-999.0,-99.9,30.11,North,-999,-999.0,-999.0,-999,-99.99,,,0.00,weatherlink.com 1.10,2013-02-16 00:57:00,
2013-02-15 20:12:00,-999.0,-99.9,30.11,North,-999,-999.0,-999.0,-999,-99.99,,,0.00,weatherlink.com 1.10,2013-02-16 01:12:00,
2013-02-15 20:28:00,-999.0,-99.9,30.11,North,-999,-999.0,-999.0,-999,-99.99,,,0.00,weatherlink.com 1.10,2013-02-16 01:28:00,
2013-02-15 20:43:00,-999.0,-99.9,30.10,North,-999,-999.0,-999.0,-999,-99.99,,,0.00,weatherlink.com 1.10,2013-02-16 01:43:00,
2013-02-15 20:58:00,-999.0,-99.9,30.11,North,-999,-999.0,-999.0,-999,-99.99,,,0.00,weatherlink.com 1.10,2013-02-16 01:58:00,
2013-02-15 21:13:00,-999.0,-99.9,30.11,North,-999,-999.0,-999.0,-999,-99.99,,,0.00,weatherlink.com 1.10,2013-02-16 02:13:00,
2013-02-15 21:28:00,-999.0,-99.9,30.11,North,-999,-999.0,-999.0,-999,-99.99,,,0.00,weatherlink.com 1.10,2013-02-16 02:28:00,
2013-02-15 21:43:00,-999.0,-99.9,30.11,North,-999,-999.0,-999.0,-999,-99.99,,,0.00,weatherlink.com 1.10,2013-02-16 02:43:00,
2013-02-15 21:58:00,-999.0,-99.9,30.11,North,-999,-999.0,-999.0,-999,-99.99,,,0.00,weatherlink.com 1.10,2013-02-16 02:58:00,
2013-02-15 22:13:00,-999.0,-99.9,30.11,North,-999,-999.0,-999.0,-999,-99.99,,,0.00,weatherlink.com 1.10,2013-02-16 03:13:00,
2013-02-15 22:28:00,-999.0,-99.9,30.11,North,-999,-999.0,-999.0,-999,-99.99,,,0.00,weatherlink.com 1.10,2013-02-16 03:28:00,
2013-02-15 22:43:00,-999.0,-99.9,30.11,North,-999,-999.0,-999.0,-999,-99.99,,,0.00,weatherlink.com 1.10,2013-02-16 03:43:00,
2013-02-15 22:58:00,-999.0,-99.9,30.10,North,-999,-999.0,-999.0,-999,-99.99,,,0.00,weatherlink.com 1.10,2013-02-16 03:58:00,
2013-02-15 23:13:00,-999.0,-99.9,30.10,North,-999,-999.0,-999.0,-999,-99.99,,,0.00,weatherlink.com 1.10,2013-02-16 04:13:00,
2013-02-15 23:28:00,-999.0,-99.9,30.09,North,-999,-999.0,-999.0,-999,-99.99,,,0.00,weatherlink.com 1.10,2013-02-16 04:28:00,
2013-02-15 23:43:00,-999.0,-99.9,30.09,North,-999,-999.0,-999.0,-999,-99.99,,,0.00,weatherlink.com 1.10,2013-02-16 04:43:00,
2013-02-15 23:59:00,-999.0,-99.9,30.09,North,-999,-999.0,-999.0,-999,-99.99,,,0.00,weatherlink.com 1.10,2013-02-16 04:59:00,